sensor_id;sensor_type;location;lat;lon;timestamp;pressure;altitude;pressure_sealevel;temperature;humidity
19797;BME280;10058;57.654;12.044;2023-02-15T00:01:54;102413.50;;;5.05;100.00
19797;BME280;10058;57.654;12.044;2023-02-15T00:04:20;102422.38;;;5.07;100.00
19797;BME280;10058;57.654;12.044;2023-02-15T00:10:14;102412.38;;;5.02;100.00
19797;BME280;10058;57.654;12.044;2023-02-15T00:12:39;102398.44;;;5.03;100.00
19797;BME280;10058;57.654;12.044;2023-02-15T00:15:04;102396.84;;;5.05;100.00
19797;BME280;10058;57.654;12.044;2023-02-15T00:17:30;102393.69;;;5.09;100.00
19797;BME280;10058;57.654;12.044;2023-02-15T00:19:55;102403.13;;;5.07;100.00
19797;BME280;10058;57.654;12.044;2023-02-15T00:22:20;102394.03;;;5.02;100.00
19797;BME280;10058;57.654;12.044;2023-02-15T00:27:48;102396.41;;;4.99;100.00
19797;BME280;10058;57.654;12.044;2023-02-15T00:30:14;102393.00;;;5.00;100.00
19797;BME280;10058;57.654;12.044;2023-02-15T00:32:39;102387.75;;;5.00;100.00
19797;BME280;10058;57.654;12.044;2023-02-15T00:35:04;102386.84;;;4.99;100.00
19797;BME280;10058;57.654;12.044;2023-02-15T00:37:29;102387.97;;;5.03;100.00
19797;BME280;10058;57.654;12.044;2023-02-15T00:39:54;102377.47;;;5.03;100.00
19797;BME280;10058;57.654;12.044;2023-02-15T00:42:20;102377.03;;;4.97;100.00
19797;BME280;10058;57.654;12.044;2023-02-15T00:47:47;102377.47;;;4.79;100.00
19797;BME280;10058;57.654;12.044;2023-02-15T00:50:13;102379.06;;;4.77;100.00
19797;BME280;10058;57.654;12.044;2023-02-15T00:52:38;102372.91;;;4.88;100.00
19797;BME280;10058;57.654;12.044;2023-02-15T00:55:03;102371.75;;;4.85;100.00
19797;BME280;10058;57.654;12.044;2023-02-15T00:57:28;102370.41;;;4.78;100.00
19797;BME280;10058;57.654;12.044;2023-02-15T00:59:54;102379.31;;;4.92;100.00
19797;BME280;10058;57.654;12.044;2023-02-15T01:02:19;102372.22;;;4.91;100.00
19797;BME280;10058;57.654;12.044;2023-02-15T01:04:44;102364.50;;;4.93;100.00
19797;BME280;10058;57.654;12.044;2023-02-15T01:10:11;102369.84;;;4.82;100.00
19797;BME280;10058;57.654;12.044;2023-02-15T01:12:37;102354.25;;;4.96;100.00
19797;BME280;10058;57.654;12.044;2023-02-15T01:15:02;102351.16;;;4.89;100.00
19797;BME280;10058;57.654;12.044;2023-02-15T01:17:27;102345.34;;;4.94;100.00
19797;BME280;10058;57.654;12.044;2023-02-15T01:19:52;102348.09;;;4.83;100.00
19797;BME280;10058;57.654;12.044;2023-02-15T01:22:18;102346.72;;;4.88;100.00
19797;BME280;10058;57.654;12.044;2023-02-15T01:27:46;102340.00;;;4.80;100.00
19797;BME280;10058;57.654;12.044;2023-02-15T01:30:11;102338.41;;;4.82;100.00
19797;BME280;10058;57.654;12.044;2023-02-15T01:32:37;102327.47;;;4.76;100.00
19797;BME280;10058;57.654;12.044;2023-02-15T01:35:02;102335.56;;;4.79;100.00
19797;BME280;10058;57.654;12.044;2023-02-15T01:37:29;102332.56;;;4.86;100.00
19797;BME280;10058;57.654;12.044;2023-02-15T01:39:54;102322.34;;;4.89;100.00
19797;BME280;10058;57.654;12.044;2023-02-15T01:42:23;102315.75;;;4.95;100.00
19797;BME280;10058;57.654;12.044;2023-02-15T01:48:00;102308.91;;;4.97;100.00
19797;BME280;10058;57.654;12.044;2023-02-15T01:52:54;102307.09;;;4.96;100.00
19797;BME280;10058;57.654;12.044;2023-02-15T01:55:20;102295.56;;;4.94;100.00
19797;BME280;10058;57.654;12.044;2023-02-15T01:57:46;102303.19;;;4.90;100.00
19797;BME280;10058;57.654;12.044;2023-02-15T02:00:12;102297.03;;;4.90;100.00
19797;BME280;10058;57.654;12.044;2023-02-15T02:02:38;102296.13;;;4.89;100.00
19797;BME280;10058;57.654;12.044;2023-02-15T02:10:56;102291.56;;;4.87;100.00
19797;BME280;10058;57.654;12.044;2023-02-15T02:13:22;102300.72;;;4.80;100.00
19797;BME280;10058;57.654;12.044;2023-02-15T02:15:48;102283.41;;;4.82;100.00
19797;BME280;10058;57.654;12.044;2023-02-15T02:18:22;102284.88;;;4.79;100.00
19797;BME280;10058;57.654;12.044;2023-02-15T02:21:11;102277.00;;;4.79;100.00
19797;BME280;10058;57.654;12.044;2023-02-15T02:23:51;102283.41;;;4.82;100.00
19797;BME280;10058;57.654;12.044;2023-02-15T02:34:43;102262.22;;;4.79;100.00
19797;BME280;10058;57.654;12.044;2023-02-15T02:42:29;102249.91;;;4.78;100.00
19797;BME280;10058;57.654;12.044;2023-02-15T02:48:06;102253.31;;;4.77;100.00
19797;BME280;10058;57.654;12.044;2023-02-15T02:50:33;102247.38;;;4.68;100.00
19797;BME280;10058;57.654;12.044;2023-02-15T02:52:59;102245.78;;;4.70;100.00
19797;BME280;10058;57.654;12.044;2023-02-15T02:58:00;102242.16;;;4.57;100.00
19797;BME280;10058;57.654;12.044;2023-02-15T03:00:30;102240.56;;;4.70;100.00
19797;BME280;10058;57.654;12.044;2023-02-15T03:03:00;102229.63;;;4.64;100.00
19797;BME280;10058;57.654;12.044;2023-02-15T03:08:51;102228.38;;;4.71;100.00
19797;BME280;10058;57.654;12.044;2023-02-15T03:11:19;102225.63;;;4.69;100.00
19797;BME280;10058;57.654;12.044;2023-02-15T03:13:44;102222.56;;;4.63;100.00
19797;BME280;10058;57.654;12.044;2023-02-15T03:16:10;102215.28;;;4.59;100.00
19797;BME280;10058;57.654;12.044;2023-02-15T03:18:54;102209.47;;;4.63;100.00
19797;BME280;10058;57.654;12.044;2023-02-15T03:21:24;102211.53;;;4.67;100.00
19797;BME280;10058;57.654;12.044;2023-02-15T03:23:52;102209.69;;;4.54;100.00
19797;BME280;10058;57.654;12.044;2023-02-15T03:29:22;102213.69;;;4.61;100.00
19797;BME280;10058;57.654;12.044;2023-02-15T03:31:49;102209.13;;;4.70;100.00
19797;BME280;10058;57.654;12.044;2023-02-15T03:34:16;102213.25;;;4.67;100.00
19797;BME280;10058;57.654;12.044;2023-02-15T03:39:40;102206.06;;;4.64;100.00
19797;BME280;10058;57.654;12.044;2023-02-15T03:42:16;102201.63;;;4.63;100.00
19797;BME280;10058;57.654;12.044;2023-02-15T03:47:46;102197.75;;;4.58;100.00
19797;BME280;10058;57.654;12.044;2023-02-15T03:50:13;102183.63;;;4.56;100.00
19797;BME280;10058;57.654;12.044;2023-02-15T03:52:59;102187.03;;;4.55;100.00
19797;BME280;10058;57.654;12.044;2023-02-15T03:55:25;102183.63;;;4.56;100.00
19797;BME280;10058;57.654;12.044;2023-02-15T03:57:50;102181.81;;;4.55;100.00
19797;BME280;10058;57.654;12.044;2023-02-15T04:00:35;102183.41;;;4.53;100.00
19797;BME280;10058;57.654;12.044;2023-02-15T04:03:33;102174.06;;;4.45;100.00
19797;BME280;10058;57.654;12.044;2023-02-15T04:09:04;102176.44;;;4.53;100.00
19797;BME280;10058;57.654;12.044;2023-02-15T04:11:48;102172.59;;;4.60;100.00
19797;BME280;10058;57.654;12.044;2023-02-15T04:14:13;102186.47;;;4.59;100.00
19797;BME280;10058;57.654;12.044;2023-02-15T04:16:57;102174.97;;;4.57;100.00
19797;BME280;10058;57.654;12.044;2023-02-15T04:19:22;102175.44;;;4.51;100.00
19797;BME280;10058;57.654;12.044;2023-02-15T04:22:06;102174.75;;;4.54;100.00
19797;BME280;10058;57.654;12.044;2023-02-15T04:27:53;102167.81;;;4.54;100.00
19797;BME280;10058;57.654;12.044;2023-02-15T04:30:19;102168.34;;;4.50;100.00
19797;BME280;10058;57.654;12.044;2023-02-15T04:32:45;102162.69;;;4.56;100.00
19797;BME280;10058;57.654;12.044;2023-02-15T04:35:10;102161.53;;;4.52;100.00
19797;BME280;10058;57.654;12.044;2023-02-15T04:37:36;102162.00;;;4.47;100.00
19797;BME280;10058;57.654;12.044;2023-02-15T04:40:02;102154.97;;;4.46;100.00
19797;BME280;10058;57.654;12.044;2023-02-15T04:42:27;102163.38;;;4.42;100.00
19797;BME280;10058;57.654;12.044;2023-02-15T04:47:56;102156.53;;;4.55;100.00
19797;BME280;10058;57.654;12.044;2023-02-15T04:50:21;102158.25;;;4.55;100.00
19797;BME280;10058;57.654;12.044;2023-02-15T04:52:46;102151.97;;;4.53;100.00
19797;BME280;10058;57.654;12.044;2023-02-15T04:55:11;102150.88;;;4.49;100.00
19797;BME280;10058;57.654;12.044;2023-02-15T04:57:36;102145.50;;;4.48;100.00
19797;BME280;10058;57.654;12.044;2023-02-15T05:00:02;102146.53;;;4.38;100.00
19797;BME280;10058;57.654;12.044;2023-02-15T05:02:27;102141.16;;;4.37;100.00
19797;BME280;10058;57.654;12.044;2023-02-15T05:04:52;102143.78;;;4.37;100.00
19797;BME280;10058;57.654;12.044;2023-02-15T05:10:20;102126.94;;;4.22;100.00
19797;BME280;10058;57.654;12.044;2023-02-15T05:12:45;102124.34;;;4.22;100.00
19797;BME280;10058;57.654;12.044;2023-02-15T05:15:11;102124.78;;;4.28;100.00
19797;BME280;10058;57.654;12.044;2023-02-15T05:17:36;102120.22;;;4.37;100.00
19797;BME280;10058;57.654;12.044;2023-02-15T05:20:01;102127.19;;;4.25;100.00
19797;BME280;10058;57.654;12.044;2023-02-15T05:22:26;102130.13;;;4.17;100.00
19797;BME280;10058;57.654;12.044;2023-02-15T05:27:54;102115.81;;;4.24;100.00
19797;BME280;10058;57.654;12.044;2023-02-15T05:30:38;102115.91;;;4.26;100.00
19797;BME280;10058;57.654;12.044;2023-02-15T05:33:04;102121.63;;;4.32;100.00
19797;BME280;10058;57.654;12.044;2023-02-15T05:35:30;102117.38;;;4.34;100.00
19797;BME280;10058;57.654;12.044;2023-02-15T05:37:55;102115.22;;;4.40;100.00
19797;BME280;10058;57.654;12.044;2023-02-15T05:40:20;102125.69;;;4.40;100.00
19797;BME280;10058;57.654;12.044;2023-02-15T05:42:45;102117.19;;;4.31;100.00
19797;BME280;10058;57.654;12.044;2023-02-15T05:48:13;102112.06;;;4.09;100.00
19797;BME280;10058;57.654;12.044;2023-02-15T05:50:39;102114.44;;;4.06;100.00
19797;BME280;10058;57.654;12.044;2023-02-15T05:53:04;102109.19;;;4.17;100.00
19797;BME280;10058;57.654;12.044;2023-02-15T05:55:29;102104.41;;;4.24;100.00
19797;BME280;10058;57.654;12.044;2023-02-15T05:57:54;102104.75;;;4.16;100.00
19797;BME280;10058;57.654;12.044;2023-02-15T06:00:19;102098.72;;;4.17;100.00
19797;BME280;10058;57.654;12.044;2023-02-15T06:02:45;102100.44;;;4.17;100.00
19797;BME280;10058;57.654;12.044;2023-02-15T06:08:31;102102.59;;;4.23;100.00
19797;BME280;10058;57.654;12.044;2023-02-15T06:10:57;102103.31;;;4.32;100.00
19797;BME280;10058;57.654;12.044;2023-02-15T06:13:22;102102.50;;;4.33;100.00
19797;BME280;10058;57.654;12.044;2023-02-15T06:15:47;102095.44;;;4.32;100.00
19797;BME280;10058;57.654;12.044;2023-02-15T06:18:12;102091.69;;;4.28;100.00
19797;BME280;10058;57.654;12.044;2023-02-15T06:20:37;102091.91;;;4.31;100.00
19797;BME280;10058;57.654;12.044;2023-02-15T06:23:02;102088.72;;;4.24;100.00
19797;BME280;10058;57.654;12.044;2023-02-15T06:28:30;102084.84;;;4.18;100.00
19797;BME280;10058;57.654;12.044;2023-02-15T06:30:55;102085.31;;;4.13;100.00
19797;BME280;10058;57.654;12.044;2023-02-15T06:33:21;102083.72;;;4.27;100.00
19797;BME280;10058;57.654;12.044;2023-02-15T06:35:46;102080.31;;;4.28;100.00
19797;BME280;10058;57.654;12.044;2023-02-15T06:38:11;102083.63;;;4.13;100.00
19797;BME280;10058;57.654;12.044;2023-02-15T06:40:36;102073.94;;;4.12;100.00
19797;BME280;10058;57.654;12.044;2023-02-15T06:43:02;102081.13;;;4.15;100.00
19797;BME280;10058;57.654;12.044;2023-02-15T06:48:29;102084.84;;;4.18;100.00
19797;BME280;10058;57.654;12.044;2023-02-15T06:50:55;102079.59;;;4.18;100.00
19797;BME280;10058;57.654;12.044;2023-02-15T06:53:20;102072.91;;;4.10;100.00
19797;BME280;10058;57.654;12.044;2023-02-15T06:55:45;102078.84;;;3.96;100.00
19797;BME280;10058;57.654;12.044;2023-02-15T06:58:10;102078.47;;;4.03;100.00
19797;BME280;10058;57.654;12.044;2023-02-15T07:00:36;102075.06;;;4.04;100.00
19797;BME280;10058;57.654;12.044;2023-02-15T07:03:01;102077.13;;;4.08;100.00
19797;BME280;10058;57.654;12.044;2023-02-15T07:08:30;102073.72;;;4.09;100.00
19797;BME280;10058;57.654;12.044;2023-02-15T07:10:55;102074.41;;;3.95;100.00
19797;BME280;10058;57.654;12.044;2023-02-15T07:13:40;102073.47;;;4.06;100.00
19797;BME280;10058;57.654;12.044;2023-02-15T07:16:07;102069.75;;;4.14;100.00
19797;BME280;10058;57.654;12.044;2023-02-15T07:18:33;102072.56;;;4.17;100.00
19797;BME280;10058;57.654;12.044;2023-02-15T07:20:58;102072.44;;;4.16;100.00
19797;BME280;10058;57.654;12.044;2023-02-15T07:23:23;102066.22;;;4.14;100.00
19797;BME280;10058;57.654;12.044;2023-02-15T07:28:52;102065.88;;;4.09;100.00
19797;BME280;10058;57.654;12.044;2023-02-15T07:31:18;102074.63;;;4.10;100.00
19797;BME280;10058;57.654;12.044;2023-02-15T07:33:43;102077.66;;;3.81;100.00
19797;BME280;10058;57.654;12.044;2023-02-15T07:36:08;102074.72;;;3.88;100.00
19797;BME280;10058;57.654;12.044;2023-02-15T07:38:36;102075.31;;;3.96;100.00
19797;BME280;10058;57.654;12.044;2023-02-15T07:41:03;102073.94;;;3.89;100.00
19797;BME280;10058;57.654;12.044;2023-02-15T07:43:29;102065.75;;;3.96;100.00
19797;BME280;10058;57.654;12.044;2023-02-15T07:48:57;102064.19;;;3.98;100.00
19797;BME280;10058;57.654;12.044;2023-02-15T07:51:22;102066.44;;;3.94;100.00
19797;BME280;10058;57.654;12.044;2023-02-15T07:53:48;102057.31;;;4.00;100.00
19797;BME280;10058;57.654;12.044;2023-02-15T07:56:13;102058.22;;;4.01;100.00
19797;BME280;10058;57.654;12.044;2023-02-15T07:58:39;102061.31;;;3.95;100.00
19797;BME280;10058;57.654;12.044;2023-02-15T08:01:18;102059.81;;;3.87;100.00
19797;BME280;10058;57.654;12.044;2023-02-15T08:03:43;102050.84;;;3.95;100.00
19797;BME280;10058;57.654;12.044;2023-02-15T08:09:11;102043.13;;;4.08;100.00
19797;BME280;10058;57.654;12.044;2023-02-15T08:11:37;102044.81;;;4.08;100.00
19797;BME280;10058;57.654;12.044;2023-02-15T08:14:12;102044.13;;;4.10;100.00
19797;BME280;10058;57.654;12.044;2023-02-15T08:19:04;102037.31;;;4.01;100.00
19797;BME280;10058;57.654;12.044;2023-02-15T08:21:30;102029.81;;;4.05;100.00
19797;BME280;10058;57.654;12.044;2023-02-15T08:23:56;102026.28;;;4.05;100.00
19797;BME280;10058;57.654;12.044;2023-02-15T08:29:25;102020.03;;;4.14;100.00
19797;BME280;10058;57.654;12.044;2023-02-15T08:31:54;102020.69;;;4.24;100.00
19797;BME280;10058;57.654;12.044;2023-02-15T08:34:20;102018.41;;;4.16;100.00
19797;BME280;10058;57.654;12.044;2023-02-15T08:36:46;102021.03;;;4.28;100.00
19797;BME280;10058;57.654;12.044;2023-02-15T08:39:11;102011.81;;;4.22;100.00
19797;BME280;10058;57.654;12.044;2023-02-15T08:41:37;102006.59;;;4.10;100.00
19797;BME280;10058;57.654;12.044;2023-02-15T08:44:04;102010.47;;;4.03;100.00
19797;BME280;10058;57.654;12.044;2023-02-15T08:49:32;101998.16;;;4.02;100.00
19797;BME280;10058;57.654;12.044;2023-02-15T08:51:58;101997.56;;;4.18;100.00
19797;BME280;10058;57.654;12.044;2023-02-15T08:54:23;101995.88;;;4.18;100.00
19797;BME280;10058;57.654;12.044;2023-02-15T08:56:48;101992.03;;;4.13;100.00
19797;BME280;10058;57.654;12.044;2023-02-15T08:59:14;101986.81;;;4.13;100.00
19797;BME280;10058;57.654;12.044;2023-02-15T09:01:40;101990.09;;;3.99;100.00
19797;BME280;10058;57.654;12.044;2023-02-15T09:04:06;101981.75;;;4.16;100.00
19797;BME280;10058;57.654;12.044;2023-02-15T09:09:42;101975.16;;;4.22;100.00
19797;BME280;10058;57.654;12.044;2023-02-15T09:12:08;101978.09;;;4.38;100.00
19797;BME280;10058;57.654;12.044;2023-02-15T09:14:33;101975.56;;;4.39;100.00
19797;BME280;10058;57.654;12.044;2023-02-15T09:16:58;101963.97;;;4.36;100.00
19797;BME280;10058;57.654;12.044;2023-02-15T09:19:23;101965.22;;;4.41;100.00
19797;BME280;10058;57.654;12.044;2023-02-15T09:21:48;101974.25;;;4.21;100.00
19797;BME280;10058;57.654;12.044;2023-02-15T09:24:14;101966.28;;;4.19;100.00
19797;BME280;10058;57.654;12.044;2023-02-15T09:29:43;101964.47;;;4.18;100.00
19797;BME280;10058;57.654;12.044;2023-02-15T09:32:08;101958.09;;;4.27;100.00
19797;BME280;10058;57.654;12.044;2023-02-15T09:34:33;101957.41;;;4.29;100.00
19797;BME280;10058;57.654;12.044;2023-02-15T09:36:59;101959.91;;;4.28;100.00
19797;BME280;10058;57.654;12.044;2023-02-15T09:39:25;101963.63;;;4.43;100.00
19797;BME280;10058;57.654;12.044;2023-02-15T09:57:43;101934.81;;;4.43;100.00
19797;BME280;10058;57.654;12.044;2023-02-15T10:05:31;101928.50;;;4.28;100.00
19797;BME280;10058;57.654;12.044;2023-02-15T10:09:07;101929.31;;;4.27;100.00
19797;BME280;10058;57.654;12.044;2023-02-15T10:11:03;101933.22;;;4.45;100.00
19797;BME280;10058;57.654;12.044;2023-02-15T10:24:19;101926.63;;;4.50;100.00
19797;BME280;10058;57.654;12.044;2023-02-15T10:29:55;101923.16;;;4.51;100.00
19797;BME280;10058;57.654;12.044;2023-02-15T10:32:26;101913.13;;;4.57;100.00
19797;BME280;10058;57.654;12.044;2023-02-15T10:37:44;101910.72;;;4.60;100.00
19797;BME280;10058;57.654;12.044;2023-02-15T10:48:33;101909.47;;;4.67;100.00
19797;BME280;10058;57.654;12.044;2023-02-15T10:51:02;101901.91;;;4.71;100.00
19797;BME280;10058;57.654;12.044;2023-02-15T10:58:51;101892.41;;;4.60;100.00
19797;BME280;10058;57.654;12.044;2023-02-15T11:01:19;101900.72;;;4.79;100.00
19797;BME280;10058;57.654;12.044;2023-02-15T11:09:33;101890.47;;;4.82;100.00
19797;BME280;10058;57.654;12.044;2023-02-15T11:12:02;101883.78;;;4.74;100.00
19797;BME280;10058;57.654;12.044;2023-02-15T11:14:35;101882.97;;;4.75;100.00
19797;BME280;10058;57.654;12.044;2023-02-15T11:17:25;101887.66;;;4.93;100.00
19797;BME280;10058;57.654;12.044;2023-02-15T11:19:51;101851.34;;;4.72;100.00
19797;BME280;10058;57.654;12.044;2023-02-15T11:22:19;101885.25;;;4.96;100.00
19797;BME280;10058;57.654;12.044;2023-02-15T11:27:48;101880.00;;;4.96;100.00
19797;BME280;10058;57.654;12.044;2023-02-15T11:30:15;101878.50;;;4.99;100.00
19797;BME280;10058;57.654;12.044;2023-02-15T11:32:42;101871.16;;;5.07;100.00
19797;BME280;10058;57.654;12.044;2023-02-15T11:37:39;101871.34;;;5.10;100.00
19797;BME280;10058;57.654;12.044;2023-02-15T11:40:27;101865.41;;;5.12;100.00
19797;BME280;10058;57.654;12.044;2023-02-15T11:42:52;101859.25;;;5.12;100.00
19797;BME280;10058;57.654;12.044;2023-02-15T11:48:22;101858.47;;;5.26;100.00
19797;BME280;10058;57.654;12.044;2023-02-15T11:50:47;101859.38;;;5.27;100.00
19797;BME280;10058;57.654;12.044;2023-02-15T11:53:16;101865.09;;;5.21;100.00
19797;BME280;10058;57.654;12.044;2023-02-15T11:55:43;101855.84;;;5.13;100.00
19797;BME280;10058;57.654;12.044;2023-02-15T12:00:46;101851.28;;;5.10;100.00
19797;BME280;10058;57.654;12.044;2023-02-15T12:03:14;101848.56;;;5.09;100.00
19797;BME280;10058;57.654;12.044;2023-02-15T12:11:18;101842.84;;;5.01;100.00
19797;BME280;10058;57.654;12.044;2023-02-15T12:13:55;101837.88;;;4.93;100.00
19797;BME280;10058;57.654;12.044;2023-02-15T12:16:21;101828.09;;;5.03;100.00
19797;BME280;10058;57.654;12.044;2023-02-15T12:18:46;101820.75;;;5.11;100.00
19797;BME280;10058;57.654;12.044;2023-02-15T12:21:16;101821.25;;;5.05;100.00
19797;BME280;10058;57.654;12.044;2023-02-15T12:23:52;101807.94;;;4.89;100.00
19797;BME280;10058;57.654;12.044;2023-02-15T12:29:21;101807.03;;;4.88;100.00
19797;BME280;10058;57.654;12.044;2023-02-15T12:31:50;101806.53;;;4.94;100.00
19797;BME280;10058;57.654;12.044;2023-02-15T12:34:21;101803.94;;;4.94;100.00
19797;BME280;10058;57.654;12.044;2023-02-15T12:36:48;101800.28;;;5.05;100.00
19797;BME280;10058;57.654;12.044;2023-02-15T12:39:26;101794.94;;;4.90;100.00
19797;BME280;10058;57.654;12.044;2023-02-15T12:44:24;101802.81;;;4.77;100.00
19797;BME280;10058;57.654;12.044;2023-02-15T12:52:42;101790.00;;;5.08;100.00
19797;BME280;10058;57.654;12.044;2023-02-15T12:55:26;101775.06;;;5.20;100.00
19797;BME280;10058;57.654;12.044;2023-02-15T13:00:38;101768.53;;;5.27;100.00
19797;BME280;10058;57.654;12.044;2023-02-15T13:03:04;101768.63;;;5.29;100.00
19797;BME280;10058;57.654;12.044;2023-02-15T13:08:47;101763.59;;;5.32;100.00
19797;BME280;10058;57.654;12.044;2023-02-15T13:11:15;101767.13;;;5.32;100.00
19797;BME280;10058;57.654;12.044;2023-02-15T13:13:51;101767.13;;;5.32;100.00
19797;BME280;10058;57.654;12.044;2023-02-15T13:16:19;101767.94;;;5.31;100.00
19797;BME280;10058;57.654;12.044;2023-02-15T13:18:49;101766.69;;;5.39;100.00
19797;BME280;10058;57.654;12.044;2023-02-15T13:21:20;101765.28;;;5.44;100.00
19797;BME280;10058;57.654;12.044;2023-02-15T13:24:29;101760.44;;;5.37;100.00
19797;BME280;10058;57.654;12.044;2023-02-15T13:29:37;101756.38;;;5.01;100.00
19797;BME280;10058;57.654;12.044;2023-02-15T13:32:10;101757.88;;;5.11;100.00
19797;BME280;10058;57.654;12.044;2023-02-15T13:34:36;101750.03;;;4.98;100.00
19797;BME280;10058;57.654;12.044;2023-02-15T13:37:17;101734.69;;;4.90;100.00
19797;BME280;10058;57.654;12.044;2023-02-15T13:39:48;101737.09;;;5.14;100.00
19797;BME280;10058;57.654;12.044;2023-02-15T13:50:50;101719.56;;;5.13;100.00
19797;BME280;10058;57.654;12.044;2023-02-15T13:58:51;101716.94;;;5.13;100.00
19797;BME280;10058;57.654;12.044;2023-02-15T14:01:31;101715.94;;;5.11;100.00
19797;BME280;10058;57.654;12.044;2023-02-15T14:09:55;101712.31;;;5.09;100.00
19797;BME280;10058;57.654;12.044;2023-02-15T14:15:39;101710.47;;;5.21;100.00
19797;BME280;10058;57.654;12.044;2023-02-15T14:18:15;101694.34;;;5.28;100.00
19797;BME280;10058;57.654;12.044;2023-02-15T14:20:47;101693.38;;;5.13;100.00
19797;BME280;10058;57.654;12.044;2023-02-15T14:28:51;101694.50;;;4.90;100.00
19797;BME280;10058;57.654;12.044;2023-02-15T14:31:22;101682.81;;;4.98;100.00
19797;BME280;10058;57.654;12.044;2023-02-15T14:33:55;101682.00;;;4.99;100.00
19797;BME280;10058;57.654;12.044;2023-02-15T14:36:20;101672.41;;;5.13;100.00
19797;BME280;10058;57.654;12.044;2023-02-15T14:44:11;101660.31;;;5.15;100.00
19797;BME280;10058;57.654;12.044;2023-02-15T14:46:48;101661.72;;;5.10;100.00
19797;BME280;10058;57.654;12.044;2023-02-15T14:49:19;101658.78;;;5.05;100.00
19797;BME280;10058;57.654;12.044;2023-02-15T14:59:27;101662.00;;;5.14;100.00
19797;BME280;10058;57.654;12.044;2023-02-15T15:07:57;101645.59;;;5.04;100.00
19797;BME280;10058;57.654;12.044;2023-02-15T15:10:32;101640.56;;;5.07;100.00
19797;BME280;10058;57.654;12.044;2023-02-15T15:12:58;101637.38;;;4.98;100.00
19797;BME280;10058;57.654;12.044;2023-02-15T15:15:46;101638.06;;;4.95;100.00
19797;BME280;10058;57.654;12.044;2023-02-15T15:18:42;101636.16;;;4.93;100.00
19797;BME280;10058;57.654;12.044;2023-02-15T15:20:56;101632.53;;;4.90;100.00
19797;BME280;10058;57.654;12.044;2023-02-15T15:31:29;101618.34;;;4.74;100.00
19797;BME280;10058;57.654;12.044;2023-02-15T15:36:41;101614.81;;;4.86;100.00
19797;BME280;10058;57.654;12.044;2023-02-15T15:42:00;101611.56;;;4.90;100.00
19797;BME280;10058;57.654;12.044;2023-02-15T15:47:44;101601.50;;;4.97;100.00
19797;BME280;10058;57.654;12.044;2023-02-15T15:50:16;101589.41;;;4.99;100.00
19797;BME280;10058;57.654;12.044;2023-02-15T15:52:50;101595.00;;;5.05;100.00
19797;BME280;10058;57.654;12.044;2023-02-15T15:55:20;101594.75;;;4.87;100.00
19797;BME280;10058;57.654;12.044;2023-02-15T15:57:47;101590.53;;;4.89;100.00
19797;BME280;10058;57.654;12.044;2023-02-15T16:00:34;101582.75;;;4.90;100.00
19797;BME280;10058;57.654;12.044;2023-02-15T16:03:00;101582.75;;;4.90;100.00
19797;BME280;10058;57.654;12.044;2023-02-15T16:08:29;101582.81;;;4.77;100.00
19797;BME280;10058;57.654;12.044;2023-02-15T16:10:54;101581.50;;;4.71;100.00
19797;BME280;10058;57.654;12.044;2023-02-15T16:13:20;101582.28;;;4.83;100.00
19797;BME280;10058;57.654;12.044;2023-02-15T16:15:46;101579.78;;;4.84;100.00
19797;BME280;10058;57.654;12.044;2023-02-15T16:18:18;101585.38;;;4.90;100.00
19797;BME280;10058;57.654;12.044;2023-02-15T16:20:54;101578.72;;;4.96;100.00
19797;BME280;10058;57.654;12.044;2023-02-15T16:23:41;101585.63;;;4.80;100.00
19797;BME280;10058;57.654;12.044;2023-02-15T16:29:15;101574.69;;;4.87;100.00
19797;BME280;10058;57.654;12.044;2023-02-15T16:31:40;101572.88;;;4.86;100.00
19797;BME280;10058;57.654;12.044;2023-02-15T16:34:08;101565.66;;;4.82;100.00
19797;BME280;10058;57.654;12.044;2023-02-15T16:36:34;101569.50;;;4.74;100.00
19797;BME280;10058;57.654;12.044;2023-02-15T16:39:06;101567.94;;;4.63;100.00
19797;BME280;10058;57.654;12.044;2023-02-15T16:41:31;101570.09;;;4.83;100.00
19797;BME280;10058;57.654;12.044;2023-02-15T16:43:58;101555.56;;;4.88;100.00
19797;BME280;10058;57.654;12.044;2023-02-15T16:49:27;101556.22;;;4.71;100.00
19797;BME280;10058;57.654;12.044;2023-02-15T16:51:57;101549.75;;;4.79;100.00
19797;BME280;10058;57.654;12.044;2023-02-15T16:54:24;101546.13;;;4.77;100.00
19797;BME280;10058;57.654;12.044;2023-02-15T16:56:50;101540.69;;;4.74;100.00
19797;BME280;10058;57.654;12.044;2023-02-15T16:59:27;101532.22;;;4.78;100.00
19797;BME280;10058;57.654;12.044;2023-02-15T17:01:54;101535.06;;;4.68;100.00
19797;BME280;10058;57.654;12.044;2023-02-15T17:09:49;101523.94;;;4.85;100.00
19797;BME280;10058;57.654;12.044;2023-02-15T17:12:35;101529.56;;;4.92;100.00
19797;BME280;10058;57.654;12.044;2023-02-15T17:14:59;101516.31;;;4.75;100.00
19797;BME280;10058;57.654;12.044;2023-02-15T17:17:24;101521.06;;;4.81;100.00
19797;BME280;10058;57.654;12.044;2023-02-15T17:19:53;101528.34;;;4.86;100.00
19797;BME280;10058;57.654;12.044;2023-02-15T17:22:21;101526.13;;;4.93;100.00
19797;BME280;10058;57.654;12.044;2023-02-15T17:27:53;101516.72;;;4.81;100.00
19797;BME280;10058;57.654;12.044;2023-02-15T17:30:53;101521.97;;;4.81;100.00
19797;BME280;10058;57.654;12.044;2023-02-15T17:33:24;101514.31;;;4.71;100.00
19797;BME280;10058;57.654;12.044;2023-02-15T17:38:30;101548.84;;;4.79;100.00
19797;BME280;10058;57.654;12.044;2023-02-15T17:40:55;101538.97;;;4.75;100.00